Time;durP1;ratioP1;P1;durP2;ratioP2;P2;SDS_P1;SDS_P2;PMS_P1;PMS_P2;Temp;Humidity;BMP_temperature;BMP_pressure;BME280_temperature;BME280_humidity;BME280_pressure;Samples;Min_cycle;Max_cycle;Signal;HPM_P1;HPM_P2
2022/07/15 00:02:01;;;;;;;7.60;5.15;;;;;;;18.27;73.46;99924.94;1775795;80;21034;-64
2022/07/15 00:04:31;;;;;;;6.80;5.67;;;;;;;18.25;73.64;99913.27;1787308;80;21516;-63
2022/07/15 00:07:01;;;;;;;8.65;5.67;;;;;;;18.22;73.65;99913.24;1787243;80;21469;-65
2022/07/15 00:12:21;;;;;;;8.78;5.60;;;;;;;18.23;73.79;99904.38;1766700;80;21043;-65
2022/07/15 00:14:50;;;;;;;6.40;5.20;;;;;;;18.19;73.86;99914.28;1766324;81;21112;-64
2022/07/15 00:17:21;;;;;;;7.87;5.42;;;;;;;18.17;73.94;99909.53;1777231;80;21051;-64
2022/07/15 00:19:50;;;;;;;6.50;4.97;;;;;;;18.13;74.02;99911.99;1767111;80;21040;-65
2022/07/15 00:22:20;;;;;;;5.55;4.62;;;;;;;18.11;74.08;99907.80;1787300;80;21054;-64
2022/07/15 00:24:50;;;;;;;5.83;4.47;;;;;;;18.08;74.08;99909.16;1787494;80;21645;-64
2022/07/15 00:27:21;;;;;;;5.05;4.12;;;;;;;18.08;74.08;99905.55;1787244;80;21031;-65
2022/07/15 00:29:51;;;;;;;7.37;4.00;;;;;;;18.08;74.09;99903.61;1787249;80;21027;-64
2022/07/15 00:32:21;;;;;;;5.20;4.03;;;;;;;18.06;74.06;99901.10;1756336;80;21019;-64
2022/07/15 00:34:52;;;;;;;5.33;3.95;;;;;;;18.03;74.20;99891.08;1787300;80;21018;-64
2022/07/15 00:37:24;;;;;;;6.28;3.67;;;;;;;17.98;74.44;99882.16;1787202;80;21070;-65
2022/07/15 00:39:55;;;;;;;6.05;3.27;;;;;;;17.97;74.62;99890.73;1787441;80;21508;-63
2022/07/15 00:42:44;;;;;;;4.72;3.47;;;;;;;17.96;74.66;99887.12;1772821;80;21004;-64
2022/07/15 00:45:22;;;;;;;6.30;3.27;;;;;;;17.95;74.65;99885.45;1766417;81;21151;-65
2022/07/15 00:47:56;;;;;;;4.45;3.50;;;;;;;17.91;74.69;99885.67;1778549;80;21055;-64
2022/07/15 00:50:28;;;;;;;4.53;3.05;;;;;;;17.87;74.87;99873.42;1779523;80;21058;-64
2022/07/15 00:53:08;;;;;;;5.80;3.45;;;;;;;17.87;74.84;99873.97;1779220;80;21019;-64
2022/07/15 00:55:42;;;;;;;4.33;3.08;;;;;;;17.86;74.83;99875.07;1779603;80;21074;-65
2022/07/15 00:58:21;;;;;;;4.72;3.45;;;;;;;17.84;74.87;99880.88;1720877;83;21051;-64
2022/07/15 01:00:51;;;;;;;4.10;3.08;;;;;;;17.85;74.88;99874.78;1718756;83;21082;-66
2022/07/15 01:03:21;;;;;;;3.92;3.05;;;;;;;17.86;74.81;99873.69;1720921;83;21719;-65
2022/07/15 01:05:51;;;;;;;4.40;3.50;;;;;;;17.86;74.93;99877.84;1740370;80;21010;-65
2022/07/15 01:08:21;;;;;;;5.33;2.83;;;;;;;17.86;75.11;99870.91;1787358;80;21039;-65
2022/07/15 01:10:51;;;;;;;5.72;3.60;;;;;;;17.86;75.33;99876.45;1787488;80;20991;-64
2022/07/15 01:13:22;;;;;;;4.40;3.42;;;;;;;17.89;75.50;99879.55;1781011;80;21047;-65
2022/07/15 01:15:53;;;;;;;5.85;3.40;;;;;;;17.94;75.57;99876.84;1779113;80;21086;-65
2022/07/15 01:18:24;;;;;;;5.53;3.55;;;;;;;17.96;75.49;99880.19;1766456;81;21020;-64
2022/07/15 01:20:55;;;;;;;5.70;3.42;;;;;;;17.98;75.43;99882.70;1766217;81;21003;-64
2022/07/15 01:23:26;;;;;;;7.37;3.80;;;;;;;17.99;75.45;99878.83;1769457;80;21003;-65
2022/07/15 01:26:07;;;;;;;6.15;3.37;;;;;;;18.00;75.52;99879.13;1779021;80;21035;-65
2022/07/15 01:28:37;;;;;;;5.70;3.47;;;;;;;17.99;75.80;99878.83;1779590;80;21027;-64
2022/07/15 01:31:09;;;;;;;7.70;3.65;;;;;;;17.97;76.00;99874.94;1753415;81;21445;-64
2022/07/15 01:33:41;;;;;;;7.22;3.50;;;;;;;17.98;76.02;99871.06;1766812;80;21052;-64
2022/07/15 01:36:13;;;;;;;6.47;3.47;;;;;;;17.94;76.00;99874.06;1766149;81;21092;-64
2022/07/15 01:38:45;;;;;;;5.53;3.42;;;;;;;17.89;76.11;99871.23;1765866;81;21032;-66
2022/07/15 01:41:16;;;;;;;5.67;3.50;;;;;;;17.89;76.21;99875.39;1765315;81;21028;-64
2022/07/15 01:43:48;;;;;;;6.28;3.42;;;;;;;17.92;76.21;99880.42;1766403;80;21047;-63
2022/07/15 01:46:18;;;;;;;5.17;3.67;;;;;;;17.90;76.18;99882.61;1784029;80;21031;-65
2022/07/15 01:51:47;;;;;;;5.78;3.70;;;;;;;17.90;76.15;99879.84;1777333;80;21043;-65
2022/07/15 01:54:17;;;;;;;6.45;3.58;;;;;;;17.89;76.29;99882.32;1766192;81;21067;-64
2022/07/15 01:56:50;;;;;;;5.40;3.55;;;;;;;17.90;76.33;99884.54;1770201;80;21094;-64
2022/07/15 01:59:24;;;;;;;6.75;4.00;;;;;;;17.92;76.41;99883.73;1776260;80;21044;-65
2022/07/15 02:01:57;;;;;;;8.35;3.75;;;;;;;17.93;76.43;99879.32;1782517;80;21060;-65
2022/07/15 02:04:27;;;;;;;7.15;4.28;;;;;;;17.92;76.44;99884.58;1782462;80;21036;-65
2022/07/15 02:06:58;;;;;;;4.60;3.50;;;;;;;17.93;76.56;99882.09;1775040;80;20996;-64
2022/07/15 02:09:30;;;;;;;7.65;3.72;;;;;;;17.96;76.63;99874.64;1772250;80;21008;-65
2022/07/15 02:12:00;;;;;;;6.97;3.70;;;;;;;17.99;76.56;99873.29;1774974;80;20989;-66
2022/07/15 02:14:36;;;;;;;3.95;3.50;;;;;;;17.99;76.47;99872.74;1782493;80;20993;-63
2022/07/15 02:17:07;;;;;;;8.25;4.10;;;;;;;18.01;76.54;99871.93;1782506;80;21043;-65
2022/07/15 02:19:39;;;;;;;5.30;3.65;;;;;;;18.04;76.53;99865.87;1782333;80;21024;-63
2022/07/15 02:22:09;;;;;;;6.60;3.72;;;;;;;18.04;76.55;99869.19;1782482;80;22225;-65
2022/07/15 02:24:42;;;;;;;4.47;3.45;;;;;;;18.03;76.60;99861.42;1788217;80;21022;-64
2022/07/15 02:27:14;;;;;;;6.92;3.62;;;;;;;18.05;76.68;99863.38;1779786;80;21052;-64
2022/07/15 02:29:45;;;;;;;6.55;3.65;;;;;;;18.11;76.67;99867.60;1771895;81;21020;-64
2022/07/15 02:32:18;;;;;;;4.28;3.58;;;;;;;18.17;76.57;99869.33;1776535;80;21028;-65
2022/07/15 02:34:47;;;;;;;6.08;3.60;;;;;;;18.18;76.48;99866.84;1782433;80;21480;-66
2022/07/15 02:37:18;;;;;;;4.30;3.05;;;;;;;18.17;76.42;99863.23;1782545;80;21481;-65
2022/07/15 02:39:50;;;;;;;6.03;3.75;;;;;;;18.19;76.44;99855.49;1782683;80;21064;-66
2022/07/15 02:42:20;;;;;;;5.03;3.40;;;;;;;18.22;76.38;99854.16;1782236;80;21017;-66
2022/07/15 02:44:50;;;;;;;5.65;3.52;;;;;;;18.24;76.40;99851.42;1782535;80;21433;-65
2022/07/15 02:47:20;;;;;;;5.40;3.92;;;;;;;18.26;76.47;99852.55;1782518;80;21047;-64
2022/07/15 02:49:50;;;;;;;5.37;3.60;;;;;;;18.31;76.39;99850.66;1782266;80;21053;-65
2022/07/15 02:52:21;;;;;;;5.65;3.55;;;;;;;18.36;76.09;99847.10;1782620;80;21101;-65
2022/07/15 02:54:53;;;;;;;5.03;3.65;;;;;;;18.38;75.87;99848.52;1782717;80;21055;-65
2022/07/15 02:57:23;;;;;;;7.53;3.62;;;;;;;18.40;75.76;99848.25;1782443;80;21054;-64
2022/07/15 02:59:53;;;;;;;5.45;3.52;;;;;;;18.42;75.71;99846.59;1782539;80;21082;-64
2022/07/15 03:02:24;;;;;;;5.40;3.55;;;;;;;18.47;75.38;99849.42;1771836;80;21035;-66
2022/07/15 03:04:55;;;;;;;6.75;3.77;;;;;;;18.50;75.29;99861.38;1769428;80;21012;-64
2022/07/15 03:07:27;;;;;;;6.00;3.55;;;;;;;18.54;75.15;99858.36;1724408;83;21030;-64
2022/07/15 03:09:59;;;;;;;5.58;3.45;;;;;;;18.57;74.79;99862.00;1698021;83;21093;-65
2022/07/15 03:12:29;;;;;;;4.80;3.50;;;;;;;18.60;74.60;99853.98;1770680;80;21467;-64
2022/07/15 03:15:01;;;;;;;5.12;3.42;;;;;;;18.64;74.39;99862.65;1769386;81;21015;-64
2022/07/15 03:17:34;;;;;;;7.20;4.20;;;;;;;18.66;74.22;99864.06;1769579;81;20996;-64
2022/07/15 03:20:06;;;;;;;6.10;3.60;;;;;;;18.68;73.79;99864.63;1769372;81;21024;-64
2022/07/15 03:22:35;;;;;;;6.97;4.33;;;;;;;18.69;73.33;99866.86;1785163;80;21054;-65
2022/07/15 03:25:07;;;;;;;6.45;4.00;;;;;;;18.72;72.90;99865.49;1787235;80;20979;-64
2022/07/15 03:27:38;;;;;;;4.00;3.45;;;;;;;18.74;72.74;99865.52;1770831;80;21011;-66
2022/07/15 03:30:09;;;;;;;5.17;3.40;;;;;;;18.74;72.56;99869.68;1769187;81;21425;-65
2022/07/15 03:32:39;;;;;;;5.45;3.75;;;;;;;18.76;72.46;99871.64;1769216;81;21047;-65
2022/07/15 03:35:10;;;;;;;4.65;3.37;;;;;;;18.81;72.43;99881.95;1769126;81;21021;-64
2022/07/15 03:37:42;;;;;;;5.05;3.58;;;;;;;18.83;72.36;99884.75;1779300;80;21042;-66
2022/07/15 03:40:13;;;;;;;9.08;4.05;;;;;;;18.87;72.42;99884.53;1782727;80;21066;-64
2022/07/15 03:42:42;;;;;;;4.20;3.65;;;;;;;18.89;72.39;99890.66;1782991;80;21019;-64
2022/07/15 03:45:15;;;;;;;5.12;3.70;;;;;;;18.90;72.32;99905.38;1701943;84;21093;-65
2022/07/15 03:47:45;;;;;;;5.70;3.75;;;;;;;18.89;72.30;99910.09;1704967;84;21452;-65
2022/07/15 03:50:17;;;;;;;6.83;4.33;;;;;;;18.90;72.59;99906.22;1705984;84;21067;-65
2022/07/15 03:52:48;;;;;;;9.13;3.90;;;;;;;18.91;72.78;99892.63;1706020;84;21063;-63
2022/07/15 03:55:18;;;;;;;7.22;4.00;;;;;;;18.95;72.80;99901.25;1706061;84;21508;-65
2022/07/15 03:57:48;;;;;;;7.58;4.03;;;;;;;18.99;72.95;99894.91;1704791;84;21071;-64
2022/07/15 04:00:18;;;;;;;5.62;4.05;;;;;;;19.04;73.29;99896.05;1705868;84;21094;-64
2022/07/15 04:02:47;;;;;;;4.40;3.70;;;;;;;19.07;73.64;99900.52;1726067;80;21023;-64
2022/07/15 04:05:17;;;;;;;6.85;3.70;;;;;;;19.13;74.00;99902.23;1785738;80;21011;-64
2022/07/15 04:07:47;;;;;;;8.25;4.05;;;;;;;19.16;73.99;99907.80;1781897;80;21434;-64
2022/07/15 04:10:19;;;;;;;7.03;4.00;;;;;;;19.18;74.20;99900.88;1769425;81;21452;-64
2022/07/15 04:12:48;;;;;;;6.20;4.10;;;;;;;19.20;74.56;99893.13;1786052;80;21042;-64
2022/07/15 04:15:18;;;;;;;5.20;3.80;;;;;;;19.21;75.07;99889.23;1783114;80;20989;-64
2022/07/15 04:17:47;;;;;;;5.30;4.00;;;;;;;19.22;75.71;99883.12;1769228;81;21062;-65
2022/07/15 04:20:20;;;;;;;6.22;4.80;;;;;;;19.25;75.66;99877.88;1769371;81;21012;-64
2022/07/15 04:22:52;;;;;;;5.12;4.00;;;;;;;19.28;76.00;99844.56;1769250;81;20980;-64
2022/07/15 04:25:23;;;;;;;5.47;4.22;;;;;;;19.29;76.47;99823.45;1769421;81;20983;-65
2022/07/15 04:27:53;;;;;;;6.37;4.00;;;;;;;19.29;76.37;99829.02;1779935;80;20999;-65
2022/07/15 04:30:25;;;;;;;6.20;4.72;;;;;;;19.29;76.13;99824.84;1726592;82;21034;-65
2022/07/15 04:32:57;;;;;;;6.80;4.40;;;;;;;19.30;76.46;99820.13;1786419;80;21053;-64
2022/07/15 04:35:30;;;;;;;7.12;4.10;;;;;;;19.31;76.92;99824.58;1726280;83;21006;-63
2022/07/15 04:38:03;;;;;;;5.60;4.22;;;;;;;19.29;77.35;99827.63;1726498;83;21063;-64
2022/07/15 04:40:33;;;;;;;8.00;4.45;;;;;;;19.30;77.79;99824.30;1726313;83;21015;-64
2022/07/15 04:43:05;;;;;;;7.28;4.55;;;;;;;19.31;78.28;99820.41;1726293;83;21054;-65
2022/07/15 04:45:37;;;;;;;7.83;4.67;;;;;;;19.33;78.58;99824.59;1663777;86;21490;-63
2022/07/15 04:50:56;;;;;;;6.78;4.42;;;;;;;19.38;79.15;99834.06;1678084;85;21521;-64
2022/07/15 04:53:28;;;;;;;6.58;4.70;;;;;;;19.42;79.42;99833.80;1673694;85;21020;-64
2022/07/15 04:55:59;;;;;;;9.85;4.67;;;;;;;19.46;79.22;99844.66;1653595;85;21543;-64
2022/07/15 04:58:28;;;;;;;8.40;5.80;;;;;;;19.48;79.21;99834.95;1687782;85;21063;-65
2022/07/15 05:00:59;;;;;;;9.58;5.33;;;;;;;19.52;79.21;99841.70;1688167;85;21063;-64
2022/07/15 05:03:28;;;;;;;7.97;5.10;;;;;;;19.57;79.26;99847.84;1711737;82;21092;-64
2022/07/15 05:05:58;;;;;;;6.35;4.65;;;;;;;19.60;78.91;99848.69;1752973;81;21076;-64
2022/07/15 05:08:31;;;;;;;8.23;5.10;;;;;;;19.63;78.51;99850.92;1754951;81;21500;-66
2022/07/15 05:11:01;;;;;;;9.18;5.40;;;;;;;19.64;78.20;99858.16;1690331;83;21096;-64
2022/07/15 05:13:31;;;;;;;12.07;5.58;;;;;;;19.65;78.01;99854.27;1727787;81;21087;-63
2022/07/15 05:16:03;;;;;;;9.35;5.53;;;;;;;19.67;78.36;99848.44;1750057;81;21088;-65
2022/07/15 05:18:35;;;;;;;10.55;5.17;;;;;;;19.65;78.03;99829.25;1751642;81;20993;-65
2022/07/15 05:21:07;;;;;;;7.03;5.05;;;;;;;19.66;78.08;99830.09;1757571;81;21131;-63
2022/07/15 05:23:40;;;;;;;9.38;4.40;;;;;;;19.68;78.05;99821.77;1733451;81;21092;-64
2022/07/15 05:26:13;;;;;;;8.85;5.50;;;;;;;19.67;77.96;99807.58;1714732;82;21009;-64
2022/07/15 05:28:47;;;;;;;6.42;5.00;;;;;;;19.67;77.88;99806.19;1719146;83;21036;-65
2022/07/15 05:31:19;;;;;;;9.08;4.70;;;;;;;19.68;78.10;99796.75;1737399;81;21494;-65
2022/07/15 05:33:49;;;;;;;6.87;5.15;;;;;;;19.67;77.90;99783.95;1749459;81;21012;-65
2022/07/15 05:36:19;;;;;;;6.40;4.97;;;;;;;19.68;77.98;99787.02;1749969;81;21025;-65
2022/07/15 05:38:49;;;;;;;10.00;7.37;;;;;;;19.72;78.55;99777.03;1750381;82;21040;-64
2022/07/15 05:41:20;;;;;;;8.15;5.65;;;;;;;19.78;78.77;99776.48;1731146;81;21028;-64
2022/07/15 05:43:52;;;;;;;8.90;5.80;;;;;;;19.87;78.98;99779.02;1719225;83;21100;-65
2022/07/15 05:46:22;;;;;;;10.15;6.00;;;;;;;20.02;79.37;99769.31;1719019;83;21025;-66
2022/07/15 05:48:54;;;;;;;19.25;6.20;;;;;;;20.21;78.99;99759.91;1718843;83;21084;-66
2022/07/15 05:51:26;;;;;;;7.83;5.20;;;;;;;20.39;78.31;99766.36;1719075;82;21028;-65
2022/07/15 05:53:57;;;;;;;9.90;5.70;;;;;;;20.51;76.90;99761.34;1720292;81;21029;-65
2022/07/15 05:56:26;;;;;;;12.23;5.60;;;;;;;20.63;75.88;99762.45;1719248;82;21033;-66
2022/07/15 05:58:58;;;;;;;11.03;5.45;;;;;;;20.69;74.77;99766.06;1727606;83;21087;-64
2022/07/15 06:01:32;;;;;;;11.18;5.72;;;;;;;20.72;74.27;99768.29;1727567;82;21480;-65
2022/07/15 06:04:03;;;;;;;12.15;5.22;;;;;;;20.75;73.98;99764.95;1727387;83;21025;-65
2022/07/15 06:06:32;;;;;;;10.35;5.20;;;;;;;20.81;73.41;99754.11;1727386;83;21536;-64
2022/07/15 06:09:04;;;;;;;9.53;5.10;;;;;;;20.89;72.29;99757.72;1712425;82;21084;-64
2022/07/15 06:11:34;;;;;;;10.35;5.67;;;;;;;20.92;71.75;99746.02;1750699;82;21101;-65
2022/07/15 06:14:05;;;;;;;7.30;5.05;;;;;;;20.97;71.56;99749.34;1737968;81;21454;-64
2022/07/15 06:16:36;;;;;;;9.25;5.20;;;;;;;21.06;71.51;99743.47;1739972;81;21494;-65
2022/07/15 06:19:10;;;;;;;10.18;4.72;;;;;;;21.25;71.16;99733.97;1766620;80;21540;-64
2022/07/15 06:21:42;;;;;;;5.08;4.22;;;;;;;21.56;70.05;99740.27;1793048;80;21023;-65
2022/07/15 06:24:12;;;;;;;8.58;4.85;;;;;;;21.90;68.73;99734.22;1793018;80;21089;-64
2022/07/15 06:26:42;;;;;;;9.80;4.35;;;;;;;22.10;66.72;99730.49;1792864;80;21014;-64
2022/07/15 06:29:12;;;;;;;5.50;4.40;;;;;;;22.36;66.62;99733.39;1792909;80;21528;-64
2022/07/15 06:31:44;;;;;;;7.72;4.70;;;;;;;22.67;65.52;99728.92;1724148;83;20997;-65
2022/07/15 06:34:15;;;;;;;18.35;5.50;;;;;;;22.88;64.28;99723.47;1717389;83;21088;-64
2022/07/15 06:36:46;;;;;;;10.05;4.62;;;;;;;22.99;63.55;99723.62;1715581;83;21068;-65
2022/07/15 06:39:17;;;;;;;7.00;4.40;;;;;;;23.03;62.94;99719.10;1715613;83;21079;-64
2022/07/15 06:41:48;;;;;;;9.78;4.60;;;;;;;23.03;63.00;99723.30;1715978;83;21005;-66
2022/07/15 06:44:19;;;;;;;8.30;4.20;;;;;;;23.08;63.09;99722.41;1728393;83;21172;-67
2022/07/15 06:46:51;;;;;;;5.87;4.05;;;;;;;23.26;63.01;99711.02;1729730;83;21031;-65
2022/07/15 06:49:23;;;;;;;7.35;4.10;;;;;;;23.55;62.17;99709.58;1747926;80;21046;-66
2022/07/15 06:51:55;;;;;;;8.08;3.98;;;;;;;23.86;61.32;99705.78;1792820;80;21031;-64
2022/07/15 06:54:25;;;;;;;5.28;4.03;;;;;;;24.05;60.21;99698.20;1782522;80;21632;-65
2022/07/15 06:56:55;;;;;;;7.87;4.40;;;;;;;24.15;59.67;99688.84;1781844;80;21055;-68
2022/07/15 06:59:26;;;;;;;7.78;4.03;;;;;;;24.19;59.20;99685.70;1779623;80;21054;-65
2022/07/15 07:01:59;;;;;;;7.72;4.22;;;;;;;24.16;58.94;99689.94;1779446;80;21049;-67
2022/07/15 07:04:30;;;;;;;6.40;3.77;;;;;;;24.12;59.02;99689.45;1789946;80;21078;-66
2022/07/15 07:07:00;;;;;;;10.70;4.37;;;;;;;24.03;58.61;99695.71;1789844;80;21012;-66
2022/07/15 07:09:31;;;;;;;6.58;4.65;;;;;;;23.96;58.70;99691.06;1789802;80;21086;-65
2022/07/15 07:12:02;;;;;;;13.93;4.62;;;;;;;23.89;59.03;99699.58;1789631;80;21063;-64
2022/07/15 07:14:32;;;;;;;7.58;4.05;;;;;;;23.85;59.11;99696.55;1782568;80;20983;-64
2022/07/15 07:17:03;;;;;;;11.38;4.42;;;;;;;23.82;59.50;99699.96;1779681;80;21054;-67
2022/07/15 07:19:33;;;;;;;15.50;5.00;;;;;;;23.80;59.62;99690.20;1779502;80;21058;-64
2022/07/15 07:22:04;;;;;;;11.63;4.28;;;;;;;23.76;60.02;99686.35;1779505;80;21063;-64
2022/07/15 07:24:34;;;;;;;9.23;4.25;;;;;;;23.76;60.23;99684.95;1779511;80;21030;-65
2022/07/15 07:27:05;;;;;;;11.10;4.37;;;;;;;23.74;60.32;99688.62;1779625;80;20984;-65
2022/07/15 07:29:37;;;;;;;10.48;4.55;;;;;;;23.70;60.56;99683.63;1780002;80;21019;-65
2022/07/15 07:32:07;;;;;;;9.00;4.40;;;;;;;23.82;60.77;99693.53;1779504;80;21019;-66
2022/07/15 07:34:38;;;;;;;6.42;3.80;;;;;;;24.08;60.60;99689.80;1773664;80;21055;-64
2022/07/15 07:37:08;;;;;;;9.55;3.90;;;;;;;24.37;60.12;99689.63;1771980;81;21589;-65
2022/07/15 07:39:38;;;;;;;9.53;4.62;;;;;;;24.60;59.15;99696.48;1772040;81;21479;-66
2022/07/15 07:42:08;;;;;;;6.33;4.15;;;;;;;24.72;58.30;99699.39;1766040;81;21090;-67
2022/07/15 07:44:39;;;;;;;9.30;4.70;;;;;;;24.74;57.89;99702.15;1761379;80;21140;-68
2022/07/15 07:47:09;;;;;;;8.90;4.12;;;;;;;24.77;58.35;99712.73;1769043;80;21015;-67
2022/07/15 07:49:44;;;;;;;7.67;3.98;;;;;;;24.96;57.95;99699.48;1728755;83;21057;-66
2022/07/15 07:52:15;;;;;;;8.63;5.20;;;;;;;25.27;57.36;99702.53;1743238;80;21086;-66
2022/07/15 07:54:44;;;;;;;6.25;4.45;;;;;;;25.58;56.65;99697.13;1770192;80;21082;-67
2022/07/15 07:57:14;;;;;;;20.30;4.87;;;;;;;25.89;55.97;99688.03;1715926;83;21522;-68
2022/07/15 07:59:43;;;;;;;7.05;4.10;;;;;;;26.12;55.50;99695.36;1701772;83;21097;-69
2022/07/15 08:02:15;;;;;;;6.53;3.95;;;;;;;26.39;55.12;99709.89;1724604;82;20984;-72
2022/07/15 08:04:45;;;;;;;7.20;3.72;;;;;;;26.64;54.36;99710.38;1709312;84;21481;-72
2022/07/15 08:07:16;;;;;;;7.45;3.80;;;;;;;26.84;53.44;99705.66;1709332;83;21013;-71
2022/07/15 08:09:51;;;;;;;3.45;3.05;;;;;;;27.06;53.18;99713.23;1711116;83;21065;-70
2022/07/15 08:12:21;;;;;;;6.95;3.50;;;;;;;27.39;52.03;99709.50;1749599;81;21055;-70
2022/07/15 08:14:54;;;;;;;7.30;3.27;;;;;;;28.23;47.58;99719.06;1787058;80;21066;-69
2022/07/15 08:17:25;;;;;;;5.55;3.20;;;;;;;28.23;47.58;99719.06;1786233;80;21485;-70
2022/07/15 08:19:56;;;;;;;4.80;2.98;;;;;;;28.36;45.04;99721.45;1779332;80;21019;-74
2022/07/15 08:22:28;;;;;;;5.37;2.80;;;;;;;28.36;45.04;99721.45;1779515;80;21078;-72
2022/07/15 08:24:59;;;;;;;5.55;2.70;;;;;;;28.29;44.87;99737.45;1778722;80;21546;-71
2022/07/15 08:27:30;;;;;;;5.87;2.95;;;;;;;28.13;43.82;99727.81;1779470;80;21039;-71
2022/07/15 08:30:02;;;;;;;7.35;3.10;;;;;;;28.01;43.83;99724.25;1779428;80;21054;-72
2022/07/15 08:32:36;;;;;;;9.40;3.83;;;;;;;27.96;45.33;99737.08;1779367;80;21043;-72
2022/07/15 08:35:08;;;;;;;6.75;5.40;;;;;;;27.85;48.68;99741.34;1779475;80;21534;-70
2022/07/15 08:37:41;;;;;;;8.95;5.58;;;;;;;27.53;51.12;99751.00;1779295;80;21027;-71
2022/07/15 08:40:12;;;;;;;7.62;5.33;;;;;;;27.15;52.83;99759.09;1779572;80;21023;-72
2022/07/15 08:42:46;;;;;;;6.20;5.00;;;;;;;26.80;53.88;99768.72;1779389;80;21118;-71
2022/07/15 08:45:16;;;;;;;9.50;4.95;;;;;;;26.52;54.92;99755.92;1772875;80;21059;-73
2022/07/15 08:47:46;;;;;;;6.30;4.60;;;;;;;26.30;55.24;99763.73;1750459;82;21423;-72
2022/07/15 08:50:19;;;;;;;6.42;4.50;;;;;;;26.06;55.36;99764.02;1749842;81;21505;-72
2022/07/15 08:52:51;;;;;;;6.85;4.30;;;;;;;25.80;56.15;99771.33;1750044;82;21023;-72
2022/07/15 08:55:21;;;;;;;5.20;4.40;;;;;;;25.56;56.48;99773.77;1750097;82;21028;-73
2022/07/15 08:57:52;;;;;;;5.17;4.60;;;;;;;25.35;57.10;99779.49;1750335;82;21039;-73
2022/07/15 09:00:30;;;;;;;7.10;4.58;;;;;;;25.22;57.65;99787.33;1762947;80;21107;-73
2022/07/15 09:03:04;;;;;;;6.90;4.65;;;;;;;25.11;58.50;99790.06;1765936;80;21095;-72
2022/07/15 09:05:36;;;;;;;6.75;5.12;;;;;;;25.02;59.06;99789.11;1766068;80;21028;-73
2022/07/15 09:08:19;;;;;;;8.53;4.78;;;;;;;24.92;59.26;99778.88;1770461;80;21419;-72
2022/07/15 09:10:54;;;;;;;7.72;4.95;;;;;;;24.87;59.48;99774.20;1781116;80;21070;-72
2022/07/15 09:13:40;;;;;;;8.85;4.70;;;;;;;24.87;59.72;99774.77;1787283;80;21054;-72
2022/07/15 09:16:19;;;;;;;5.87;4.80;;;;;;;24.84;59.24;99777.63;1787373;80;21054;-72
2022/07/15 09:18:47;;;;;;;8.13;4.87;;;;;;;24.78;59.13;99774.65;1787010;80;21083;-73
2022/07/15 09:21:23;;;;;;;8.05;4.67;;;;;;;24.79;59.37;99776.88;1724306;83;21097;-71
2022/07/15 09:23:53;;;;;;;4.83;3.87;;;;;;;24.83;59.03;99782.97;1720818;83;21058;-72
2022/07/15 09:26:33;;;;;;;4.50;4.08;;;;;;;24.83;58.47;99784.37;1719975;83;21075;-70
2022/07/15 09:29:00;;;;;;;5.72;4.17;;;;;;;24.85;58.40;99785.46;1720272;83;21062;-72
2022/07/15 09:34:26;;;;;;;7.28;4.33;;;;;;;24.91;57.90;99786.46;1720859;83;21007;-71
2022/07/15 09:36:57;;;;;;;11.08;4.37;;;;;;;24.91;57.52;99792.06;1720567;83;21002;-71
2022/07/15 09:39:29;;;;;;;6.53;4.28;;;;;;;24.91;57.44;99799.64;1735219;80;21513;-73
2022/07/15 09:42:06;;;;;;;9.30;6.70;;;;;;;24.89;57.56;99799.95;1765984;81;21063;-68
2022/07/15 09:44:37;;;;;;;5.65;4.17;;;;;;;24.86;57.22;99803.37;1766080;81;21610;-70
2022/07/15 09:47:11;;;;;;;6.60;4.20;;;;;;;24.81;56.95;99803.45;1756888;80;21054;-70
2022/07/15 09:49:42;;;;;;;6.25;3.70;;;;;;;24.76;56.44;99809.15;1694894;83;21010;-70
2022/07/15 09:52:14;;;;;;;8.03;3.60;;;;;;;24.71;56.56;99807.83;1714581;84;21053;-70
2022/07/15 09:54:48;;;;;;;4.33;3.70;;;;;;;24.69;55.84;99808.67;1714439;84;21116;-69
2022/07/15 09:57:18;;;;;;;5.17;3.62;;;;;;;24.68;55.80;99812.62;1718063;83;21108;-72
2022/07/15 09:59:51;;;;;;;6.03;4.20;;;;;;;24.67;55.57;99824.96;1722656;82;21077;-70
2022/07/15 10:02:20;;;;;;;4.17;3.55;;;;;;;24.64;55.97;99823.60;1709064;84;21033;-71
2022/07/15 10:04:52;;;;;;;6.83;3.90;;;;;;;24.59;56.09;99820.05;1709170;83;21022;-70
2022/07/15 10:07:25;;;;;;;6.80;3.85;;;;;;;24.55;56.29;99820.39;1709374;83;21097;-68
2022/07/15 10:10:04;;;;;;;6.40;4.33;;;;;;;24.49;56.41;99823.02;1709204;84;21454;-70
2022/07/15 10:13:12;;;;;;;7.00;4.40;;;;;;;24.38;56.84;99822.34;1709165;84;21033;-66
2022/07/15 10:15:52;;;;;;;7.12;5.30;;;;;;;24.25;57.47;99830.90;1709159;83;21470;-71
2022/07/15 10:18:50;;;;;;;8.73;4.83;;;;;;;24.11;58.13;99831.38;1695316;84;21085;-68
2022/07/15 10:21:41;;;;;;;;;;;;;;;24.02;58.58;99833.16;1728331;83;21034;-69
2022/07/15 10:24:49;;;;;;;7.67;4.92;;;;;;;23.91;59.26;99832.45;1725839;83;20195;-70
2022/07/15 10:27:39;;;;;;;11.40;5.80;;;;;;;23.81;59.87;99849.37;1726069;83;21009;-69
2022/07/15 10:30:09;;;;;;;9.65;5.47;;;;;;;23.66;60.38;99850.39;1726151;83;21049;-67
2022/07/15 10:33:07;;;;;;;10.15;6.25;;;;;;;23.59;61.13;99867.27;1725940;83;21049;-67
2022/07/15 10:35:52;;;;;;;8.35;6.20;;;;;;;23.57;61.88;99870.36;1726496;83;21185;-67
2022/07/15 10:38:35;;;;;;;8.73;5.58;;;;;;;23.47;62.46;99873.23;1724499;83;21041;-67
2022/07/15 10:41:21;;;;;;;7.20;6.00;;;;;;;23.38;63.69;99888.95;1726276;83;21018;-70
2022/07/15 10:43:53;;;;;;;7.30;6.15;;;;;;;23.35;64.15;99886.19;1697304;83;20989;-68
2022/07/15 10:46:28;;;;;;;9.38;5.72;;;;;;;23.29;64.69;99890.73;1715087;83;21043;-70
2022/07/15 10:49:09;;;;;;;6.53;5.10;;;;;;;23.22;65.56;99892.47;1661407;86;21079;-70
2022/07/15 10:51:43;;;;;;;10.18;6.55;;;;;;;23.21;66.78;99913.72;1666298;85;21061;-69
2022/07/15 10:54:36;;;;;;;7.17;6.33;;;;;;;23.14;66.22;99903.45;1688950;85;21073;-70
2022/07/15 10:57:05;;;;;;;9.10;6.50;;;;;;;23.01;66.69;99900.20;1689008;85;21041;-68
2022/07/15 10:59:41;;;;;;;6.85;6.15;;;;;;;22.91;68.71;99914.25;1700055;83;21093;-68
2022/07/15 11:02:15;;;;;;;10.20;6.40;;;;;;;22.84;68.79;99917.94;1706346;84;21481;-71
2022/07/15 11:04:46;;;;;;;11.10;6.80;;;;;;;22.74;69.34;99929.95;1706051;84;21652;-69
2022/07/15 11:07:20;;;;;;;11.08;6.83;;;;;;;22.69;69.88;99924.97;1706125;84;21093;-69
2022/07/15 11:09:59;;;;;;;8.65;6.85;;;;;;;22.64;71.53;99930.58;1706353;84;21080;-68
2022/07/15 11:12:36;;;;;;;9.95;6.60;;;;;;;22.63;73.36;99939.52;1721867;83;21032;-70
2022/07/15 11:15:12;;;;;;;;;;;;;;;22.55;72.22;99951.30;1728409;83;21020;-69
2022/07/15 11:17:43;;;;;;;12.35;6.83;;;;;;;22.48;72.48;99941.57;1725939;83;20213;-70
2022/07/15 11:20:23;;;;;;;10.78;6.78;;;;;;;22.34;73.28;99939.41;1726143;83;21280;-68
2022/07/15 11:22:55;;;;;;;7.40;6.10;;;;;;;22.21;73.16;99927.47;1726192;83;21024;-69
2022/07/15 11:25:32;;;;;;;8.35;6.05;;;;;;;22.12;72.97;99931.41;1726131;83;21005;-70
2022/07/15 11:28:11;;;;;;;8.00;6.70;;;;;;;21.99;72.69;99926.94;1701405;83;21564;-68
2022/07/15 11:30:53;;;;;;;6.35;5.72;;;;;;;21.87;73.03;99916.66;1694534;83;21123;-70
2022/07/15 11:33:18;;;;;;;7.20;5.97;;;;;;;21.76;73.25;99913.91;1705967;83;21069;-69
2022/07/15 11:35:53;;;;;;;6.30;5.50;;;;;;;21.67;73.50;99928.16;1706156;84;21041;-68
2022/07/15 11:38:30;;;;;;;8.90;6.78;;;;;;;21.59;73.90;99941.84;1706172;84;21069;-70
2022/07/15 11:46:56;;;;;;;8.88;6.83;;;;;;;21.33;76.82;99961.91;1704056;83;21002;-70
2022/07/15 11:49:32;;;;;;;8.95;7.15;;;;;;;21.25;77.36;99977.79;1706577;84;21484;-69
2022/07/15 11:52:02;;;;;;;10.93;5.80;;;;;;;21.19;77.25;99981.09;1693549;84;21116;-68
2022/07/15 11:54:34;;;;;;;7.60;5.80;;;;;;;21.17;76.76;99994.47;1737164;82;21047;-74
2022/07/15 11:57:07;;;;;;;7.50;6.22;;;;;;;21.08;75.42;99990.01;1713607;84;21036;-68
2022/07/15 11:59:38;;;;;;;13.83;6.92;;;;;;;20.98;76.21;99994.73;1665723;85;21164;-64
2022/07/15 12:02:10;;;;;;;7.17;6.00;;;;;;;20.96;76.55;99995.01;1701284;84;21088;-67
2022/07/15 12:04:42;;;;;;;7.87;6.30;;;;;;;20.94;77.44;99995.84;1655743;86;21068;-69
2022/07/15 12:07:14;;;;;;;6.83;5.92;;;;;;;20.89;77.66;99984.69;1716055;82;21039;-68
2022/07/15 12:09:50;;;;;;;7.42;6.25;;;;;;;20.89;77.78;99990.27;1684582;85;21095;-69
2022/07/15 12:12:22;;;;;;;8.95;6.50;;;;;;;20.91;77.06;99995.00;1684517;85;21079;-69
2022/07/15 12:14:51;;;;;;;12.18;7.72;;;;;;;20.93;76.84;99989.16;1684014;85;21071;-70
2022/07/15 12:17:23;;;;;;;9.35;5.87;;;;;;;20.94;77.76;99991.66;1684224;85;21039;-68